EXS49YF EGCC-GCTS
Flight info
| Callsign | EXS49YF |
|---|---|
| Flight time | N/A |
| Altitude | 39000 |
| Route | ASMIM DCT NOKIN P17 BEPHE DCT OSSEP DCT ELNIF DCT ZESPE DCT DAWLY DCT BHD DCT ANNET DCT EKVEB DCT KORUL DCT DEMOS DCT IBIDO DCT TUNAV DCT VABEM DCT RULET DCT ORTIS |
| Aircraft | A21N/M-SDE2E3FGHIRWXY/LB1 |
Departure
| Time | 2026-05-06 15:23 |
|---|---|
| Airport | Manchester Airport (EGCC) |
Arrival
| Time | N/A |
|---|---|
| Airport | Tenerife Sur Airport (GCTS) |
| Time | Latitude | Longitude | Altitude | Speed | Heading |
|---|---|---|---|---|---|
| 2026-05-06 14:14 | 53.36422 | -2.28244 | 261 ft | 0 kts | 45° |
| 2026-05-06 15:10 | 53.36419 | -2.28250 | 260 ft | 3 kts | 45° |
| 2026-05-06 15:10 | 53.36401 | -2.28279 | 260 ft | 2 kts | 45° |
| 2026-05-06 15:10 | 53.36385 | -2.28307 | 260 ft | 4 kts | 50° |
| 2026-05-06 15:11 | 53.36372 | -2.28343 | 260 ft | 4 kts | 83° |
| 2026-05-06 15:11 | 53.36375 | -2.28367 | 260 ft | 1 kts | 135° |
| 2026-05-06 15:11 | 53.36358 | -2.28338 | 260 ft | 4 kts | 135° |
| 2026-05-06 15:11 | 53.36339 | -2.28306 | 260 ft | 4 kts | 135° |
| 2026-05-06 15:12 | 53.36320 | -2.28274 | 260 ft | 4 kts | 135° |
| 2026-05-06 15:12 | 53.36301 | -2.28242 | 260 ft | 4 kts | 135° |
| 2026-05-06 15:12 | 53.36282 | -2.28210 | 260 ft | 3 kts | 135° |
| 2026-05-06 15:12 | 53.36279 | -2.28206 | 260 ft | 0 kts | 135° |
| 2026-05-06 15:16 | 53.36274 | -2.28193 | 260 ft | 3 kts | 123° |
| 2026-05-06 15:16 | 53.36250 | -2.28149 | 260 ft | 7 kts | 151° |
| 2026-05-06 15:16 | 53.36186 | -2.28155 | 260 ft | 12 kts | 178° |
| 2026-05-06 15:17 | 53.36112 | -2.28079 | 260 ft | 14 kts | 136° |
| 2026-05-06 15:17 | 53.36061 | -2.28001 | 260 ft | 7 kts | 139° |
| 2026-05-06 15:17 | 53.36019 | -2.27940 | 260 ft | 9 kts | 139° |
| 2026-05-06 15:17 | 53.35967 | -2.27869 | 261 ft | 10 kts | 151° |
| 2026-05-06 15:18 | 53.35900 | -2.27848 | 261 ft | 11 kts | 184° |
| 2026-05-06 15:18 | 53.35838 | -2.27858 | 257 ft | 6 kts | 185° |
| 2026-05-06 15:18 | 53.35789 | -2.27865 | 255 ft | 8 kts | 185° |
| 2026-05-06 15:18 | 53.35731 | -2.27875 | 252 ft | 9 kts | 187° |
| 2026-05-06 15:19 | 53.35658 | -2.27893 | 248 ft | 12 kts | 189° |
| 2026-05-06 15:19 | 53.35587 | -2.27980 | 244 ft | 14 kts | 234° |
| 2026-05-06 15:19 | 53.35519 | -2.28098 | 239 ft | 15 kts | 211° |
| 2026-05-06 15:19 | 53.35414 | -2.28157 | 242 ft | 18 kts | 186° |
| 2026-05-06 15:20 | 53.35293 | -2.28216 | 238 ft | 19 kts | 212° |
| 2026-05-06 15:20 | 53.35209 | -2.28345 | 237 ft | 15 kts | 231° |
| 2026-05-06 15:20 | 53.35146 | -2.28478 | 232 ft | 14 kts | 230° |
| 2026-05-06 15:20 | 53.35080 | -2.28612 | 235 ft | 16 kts | 231° |
| 2026-05-06 15:21 | 53.35004 | -2.28761 | 232 ft | 18 kts | 226° |
| 2026-05-06 15:21 | 53.34915 | -2.28917 | 230 ft | 16 kts | 226° |
| 2026-05-06 15:21 | 53.34853 | -2.29024 | 224 ft | 12 kts | 225° |
| 2026-05-06 15:21 | 53.34772 | -2.29073 | 224 ft | 14 kts | 177° |
| 2026-05-06 15:22 | 53.34696 | -2.29029 | 223 ft | 5 kts | 140° |
| 2026-05-06 15:22 | 53.34672 | -2.28976 | 224 ft | 7 kts | 99° |
| 2026-05-06 15:22 | 53.34689 | -2.28916 | 226 ft | 0 kts | 50° |
| 2026-05-06 15:22 | 53.34710 | -2.28871 | 226 ft | 28 kts | 51° |
| 2026-05-06 15:23 | 53.34974 | -2.28323 | 238 ft | 89 kts | 46° |
| 2026-05-06 15:23 | 53.35480 | -2.27276 | 254 ft | 140 kts | 51° |
| 2026-05-06 15:23 | 53.36122 | -2.25937 | 448 ft | 160 kts | 51° |
| 2026-05-06 15:23 | 53.36845 | -2.24492 | 996 ft | 163 kts | 50° |
| 2026-05-06 15:24 | 53.37584 | -2.23060 | 1643 ft | 162 kts | 50° |
| 2026-05-06 15:24 | 53.38351 | -2.21655 | 2327 ft | 166 kts | 46° |
| 2026-05-06 15:24 | 53.39281 | -2.20450 | 2955 ft | 176 kts | 22° |
| 2026-05-06 15:24 | 53.40542 | -2.20511 | 3500 ft | 199 kts | 340° |
| 2026-05-06 15:25 | 53.41735 | -2.21858 | 4069 ft | 220 kts | 310° |
| 2026-05-06 15:25 | 53.42454 | -2.24256 | 4643 ft | 242 kts | 295° |
| 2026-05-06 15:25 | 53.43154 | -2.26888 | 4983 ft | 267 kts | 295° |
| 2026-05-06 15:25 | 53.43913 | -2.29754 | 5048 ft | 269 kts | 295° |
| 2026-05-06 15:26 | 53.44650 | -2.32570 | 5157 ft | 261 kts | 295° |
| 2026-05-06 15:26 | 53.45316 | -2.35142 | 5911 ft | 248 kts | 295° |
| 2026-05-06 15:26 | 53.46005 | -2.37803 | 6857 ft | 249 kts | 294° |
| 2026-05-06 15:26 | 53.46676 | -2.40456 | 7738 ft | 250 kts | 291° |
| 2026-05-06 15:27 | 53.47016 | -2.43356 | 8643 ft | 253 kts | 270° |
| 2026-05-06 15:27 | 53.46791 | -2.46269 | 9492 ft | 257 kts | 261° |
| 2026-05-06 15:27 | 53.46439 | -2.49221 | 10313 ft | 260 kts | 260° |
| 2026-05-06 15:27 | 53.46081 | -2.52217 | 11114 ft | 263 kts | 261° |
| 2026-05-06 15:28 | 53.45729 | -2.55244 | 11919 ft | 265 kts | 261° |
| 2026-05-06 15:28 | 53.45381 | -2.58291 | 12733 ft | 267 kts | 261° |
| 2026-05-06 15:28 | 53.44968 | -2.61337 | 13571 ft | 270 kts | 253° |
| 2026-05-06 15:28 | 53.44121 | -2.64161 | 14317 ft | 275 kts | 236° |
| 2026-05-06 15:29 | 53.42747 | -2.66425 | 15018 ft | 281 kts | 218° |
| 2026-05-06 15:29 | 53.41026 | -2.68052 | 15715 ft | 287 kts | 206° |
| 2026-05-06 15:29 | 53.39138 | -2.69190 | 16405 ft | 291 kts | 201° |
| 2026-05-06 15:29 | 53.37202 | -2.70232 | 16874 ft | 293 kts | 201° |
| 2026-05-06 15:30 | 53.35243 | -2.71331 | 17031 ft | 305 kts | 202° |
| 2026-05-06 15:30 | 53.33178 | -2.72547 | 17216 ft | 325 kts | 202° |
| 2026-05-06 15:30 | 53.30987 | -2.73877 | 17434 ft | 343 kts | 203° |
| 2026-05-06 15:30 | 53.28698 | -2.75283 | 17710 ft | 359 kts | 203° |
| 2026-05-06 15:31 | 53.26340 | -2.76740 | 18300 ft | 366 kts | 203° |
| 2026-05-06 15:31 | 53.23946 | -2.78224 | 18950 ft | 369 kts | 203° |
| 2026-05-06 15:31 | 53.21528 | -2.79725 | 19583 ft | 372 kts | 203° |
| 2026-05-06 15:32 | 53.16664 | -2.82739 | 20830 ft | 378 kts | 203° |
| 2026-05-06 15:32 | 53.14157 | -2.84289 | 21450 ft | 381 kts | 203° |
| 2026-05-06 15:32 | 53.11692 | -2.85812 | 22044 ft | 384 kts | 203° |
| 2026-05-06 15:32 | 53.09146 | -2.87258 | 22650 ft | 389 kts | 197° |
| 2026-05-06 15:33 | 53.06443 | -2.87863 | 23226 ft | 397 kts | 182° |
| 2026-05-06 15:33 | 53.03677 | -2.87393 | 23771 ft | 403 kts | 173° |
| 2026-05-06 15:33 | 53.00907 | -2.86593 | 24252 ft | 406 kts | 172° |
| 2026-05-06 15:33 | 52.98118 | -2.85766 | 24752 ft | 408 kts | 173° |
| 2026-05-06 15:34 | 52.96222 | -2.85226 | 25069 ft | 410 kts | 173° |
| 2026-05-06 15:34 | 52.93402 | -2.84442 | 25560 ft | 412 kts | 173° |
| 2026-05-06 15:34 | 52.90561 | -2.83670 | 26033 ft | 415 kts | 173° |
| 2026-05-06 15:34 | 52.87708 | -2.82901 | 26503 ft | 417 kts | 173° |
| 2026-05-06 15:35 | 52.84833 | -2.82124 | 26958 ft | 419 kts | 173° |
| 2026-05-06 15:35 | 52.81948 | -2.81348 | 27402 ft | 422 kts | 173° |
| 2026-05-06 15:35 | 52.79045 | -2.80566 | 27845 ft | 424 kts | 173° |
| 2026-05-06 15:35 | 52.76125 | -2.79781 | 28255 ft | 427 kts | 174° |
| 2026-05-06 15:36 | 52.73184 | -2.78993 | 28670 ft | 429 kts | 174° |
| 2026-05-06 15:36 | 52.70270 | -2.78216 | 29085 ft | 431 kts | 174° |
| 2026-05-06 15:36 | 52.67307 | -2.77421 | 29495 ft | 433 kts | 174° |
| 2026-05-06 15:36 | 52.64328 | -2.76625 | 29885 ft | 435 kts | 174° |
| 2026-05-06 15:37 | 52.61327 | -2.75969 | 30238 ft | 435 kts | 179° |
| 2026-05-06 15:37 | 52.58295 | -2.75987 | 30553 ft | 435 kts | 186° |
| 2026-05-06 15:37 | 52.55265 | -2.76253 | 30866 ft | 437 kts | 186° |
| 2026-05-06 15:37 | 52.52220 | -2.76550 | 31167 ft | 439 kts | 186° |
| 2026-05-06 15:38 | 52.49158 | -2.76839 | 31460 ft | 442 kts | 186° |
| 2026-05-06 15:38 | 52.46081 | -2.77116 | 31770 ft | 444 kts | 186° |
| 2026-05-06 15:38 | 52.42994 | -2.77385 | 32091 ft | 445 kts | 186° |
| 2026-05-06 15:38 | 52.39905 | -2.77651 | 32479 ft | 444 kts | 186° |
| 2026-05-06 15:39 | 52.36823 | -2.77916 | 32838 ft | 444 kts | 186° |
| 2026-05-06 15:39 | 52.33740 | -2.78179 | 33193 ft | 443 kts | 186° |
| 2026-05-06 15:39 | 52.30664 | -2.78443 | 33539 ft | 443 kts | 186° |
| 2026-05-06 15:39 | 52.27590 | -2.78707 | 33868 ft | 442 kts | 186° |
| 2026-05-06 15:40 | 52.24513 | -2.78972 | 34151 ft | 442 kts | 186° |
| 2026-05-06 15:40 | 52.21445 | -2.79234 | 34384 ft | 442 kts | 186° |
| 2026-05-06 15:40 | 52.18365 | -2.79497 | 34617 ft | 443 kts | 186° |
| 2026-05-06 15:40 | 52.15289 | -2.79760 | 34839 ft | 443 kts | 186° |
| 2026-05-06 15:41 | 52.12205 | -2.80023 | 35055 ft | 444 kts | 186° |
| 2026-05-06 15:41 | 52.09165 | -2.80283 | 35264 ft | 444 kts | 186° |
| 2026-05-06 15:41 | 52.06080 | -2.80546 | 35469 ft | 444 kts | 186° |
| 2026-05-06 15:41 | 52.02994 | -2.80806 | 35672 ft | 445 kts | 186° |
| 2026-05-06 15:42 | 51.99898 | -2.81069 | 35863 ft | 445 kts | 186° |
| 2026-05-06 15:42 | 51.96801 | -2.81333 | 36075 ft | 446 kts | 186° |
| 2026-05-06 15:42 | 51.93700 | -2.81597 | 36273 ft | 446 kts | 185° |
| 2026-05-06 15:42 | 51.90593 | -2.81858 | 36468 ft | 447 kts | 185° |
| 2026-05-06 15:43 | 51.87493 | -2.82119 | 36662 ft | 447 kts | 185° |
| 2026-05-06 15:43 | 51.84396 | -2.82523 | 36844 ft | 446 kts | 189° |
| 2026-05-06 15:43 | 51.81316 | -2.83170 | 37028 ft | 446 kts | 190° |
| 2026-05-06 15:43 | 51.78234 | -2.83847 | 37206 ft | 446 kts | 190° |
| 2026-05-06 15:44 | 51.75166 | -2.84518 | 37377 ft | 446 kts | 190° |
| 2026-05-06 15:44 | 51.72083 | -2.85184 | 37570 ft | 446 kts | 190° |
| 2026-05-06 15:44 | 51.69005 | -2.85842 | 37738 ft | 446 kts | 190° |
| 2026-05-06 15:44 | 51.65924 | -2.86496 | 37863 ft | 446 kts | 190° |
| 2026-05-06 15:45 | 51.62844 | -2.87150 | 37970 ft | 447 kts | 189° |
| 2026-05-06 15:45 | 51.59769 | -2.87802 | 38103 ft | 446 kts | 189° |
| 2026-05-06 15:45 | 51.56692 | -2.88475 | 38253 ft | 446 kts | 192° |
| 2026-05-06 15:45 | 51.53683 | -2.89662 | 38357 ft | 444 kts | 201° |
| 2026-05-06 15:46 | 51.50781 | -2.91345 | 38493 ft | 444 kts | 203° |
| 2026-05-06 15:46 | 51.47897 | -2.93115 | 38668 ft | 445 kts | 203° |
| 2026-05-06 15:46 | 51.45006 | -2.94891 | 38793 ft | 445 kts | 203° |
| 2026-05-06 15:46 | 51.42106 | -2.96652 | 38957 ft | 445 kts | 202° |
| 2026-05-06 15:47 | 51.36300 | -3.00130 | 39009 ft | 445 kts | 202° |
| 2026-05-06 15:47 | 51.30495 | -3.03594 | 38989 ft | 445 kts | 202° |
| 2026-05-06 15:48 | 51.24690 | -3.07049 | 38984 ft | 445 kts | 202° |
| 2026-05-06 15:48 | 51.18886 | -3.10490 | 38986 ft | 445 kts | 202° |
| 2026-05-06 15:49 | 51.13081 | -3.13926 | 38986 ft | 445 kts | 202° |
| 2026-05-06 15:49 | 51.07275 | -3.17356 | 38988 ft | 445 kts | 202° |
| 2026-05-06 15:50 | 51.01468 | -3.20775 | 38989 ft | 445 kts | 202° |
| 2026-05-06 15:50 | 50.95654 | -3.24185 | 38991 ft | 445 kts | 202° |
| 2026-05-06 15:51 | 50.89847 | -3.27587 | 38990 ft | 445 kts | 202° |
| 2026-05-06 15:51 | 50.84036 | -3.30982 | 38990 ft | 446 kts | 202° |
| 2026-05-06 15:52 | 50.78214 | -3.34370 | 38993 ft | 446 kts | 202° |
| 2026-05-06 15:52 | 50.72383 | -3.37759 | 38993 ft | 446 kts | 202° |
| 2026-05-06 15:53 | 50.66551 | -3.41139 | 38994 ft | 446 kts | 202° |
| 2026-05-06 15:53 | 50.60724 | -3.44506 | 38991 ft | 446 kts | 202° |
| 2026-05-06 15:54 | 50.54762 | -3.46950 | 38989 ft | 449 kts | 189° |
| 2026-05-06 15:54 | 50.48503 | -3.47976 | 38995 ft | 450 kts | 187° |
| 2026-05-06 15:55 | 50.42316 | -3.48978 | 38993 ft | 450 kts | 189° |
| 2026-05-06 15:55 | 50.36326 | -3.51670 | 38991 ft | 445 kts | 205° |
| 2026-05-06 15:56 | 50.30723 | -3.55633 | 38997 ft | 445 kts | 206° |
| 2026-05-06 15:56 | 50.25068 | -3.59573 | 38995 ft | 445 kts | 206° |
| 2026-05-06 15:57 | 50.19383 | -3.63473 | 38995 ft | 446 kts | 205° |
| 2026-05-06 15:57 | 50.13700 | -3.67354 | 38994 ft | 446 kts | 205° |
| 2026-05-06 15:58 | 50.08018 | -3.71223 | 38991 ft | 446 kts | 205° |
| 2026-05-06 15:58 | 50.02334 | -3.75089 | 38993 ft | 445 kts | 205° |
| 2026-05-06 15:59 | 49.96650 | -3.78949 | 38996 ft | 445 kts | 205° |
| 2026-05-06 15:59 | 49.90972 | -3.82793 | 38995 ft | 445 kts | 205° |
| 2026-05-06 16:00 | 49.85285 | -3.86633 | 38992 ft | 445 kts | 205° |
| 2026-05-06 16:00 | 49.79601 | -3.90465 | 38994 ft | 445 kts | 205° |
| 2026-05-06 16:01 | 49.73909 | -3.94281 | 38993 ft | 445 kts | 205° |
| 2026-05-06 16:01 | 49.68264 | -3.98058 | 38993 ft | 445 kts | 205° |
| 2026-05-06 16:02 | 49.62572 | -4.01827 | 38989 ft | 445 kts | 204° |
| 2026-05-06 16:02 | 49.56843 | -4.05444 | 38987 ft | 445 kts | 204° |
| 2026-05-06 16:03 | 49.51110 | -4.09060 | 38988 ft | 445 kts | 204° |
| 2026-05-06 16:03 | 49.45388 | -4.12681 | 38990 ft | 444 kts | 204° |
| 2026-05-06 16:04 | 49.39673 | -4.16293 | 38990 ft | 444 kts | 204° |
| 2026-05-06 16:04 | 49.33954 | -4.19892 | 38990 ft | 444 kts | 204° |
| 2026-05-06 16:05 | 49.28228 | -4.23483 | 38990 ft | 444 kts | 204° |
| 2026-05-06 16:05 | 49.22507 | -4.27067 | 38984 ft | 444 kts | 204° |
| 2026-05-06 16:06 | 49.16773 | -4.30646 | 38989 ft | 445 kts | 204° |
| 2026-05-06 16:06 | 49.11037 | -4.34214 | 38992 ft | 445 kts | 204° |
| 2026-05-06 16:07 | 49.05294 | -4.37782 | 38992 ft | 445 kts | 204° |
| 2026-05-06 16:07 | 48.99556 | -4.41338 | 38993 ft | 445 kts | 204° |
| 2026-05-06 16:08 | 48.93818 | -4.44882 | 38990 ft | 445 kts | 204° |
| 2026-05-06 16:08 | 48.88090 | -4.48416 | 38991 ft | 444 kts | 204° |
| 2026-05-06 16:09 | 48.82359 | -4.51944 | 38994 ft | 445 kts | 204° |
| 2026-05-06 16:09 | 48.76612 | -4.55471 | 38995 ft | 445 kts | 204° |
| 2026-05-06 16:10 | 48.70875 | -4.58984 | 38989 ft | 445 kts | 204° |
| 2026-05-06 16:10 | 48.65134 | -4.62485 | 38993 ft | 445 kts | 204° |
| 2026-05-06 16:11 | 48.59393 | -4.65975 | 38991 ft | 446 kts | 204° |
| 2026-05-06 16:11 | 48.53637 | -4.69479 | 38985 ft | 445 kts | 204° |
| 2026-05-06 16:12 | 48.47901 | -4.72958 | 38988 ft | 445 kts | 204° |
| 2026-05-06 16:12 | 48.42163 | -4.76428 | 38986 ft | 445 kts | 204° |
| 2026-05-06 16:13 | 48.36413 | -4.79896 | 38985 ft | 445 kts | 204° |
| 2026-05-06 16:13 | 48.30653 | -4.83361 | 38986 ft | 445 kts | 204° |
| 2026-05-06 16:14 | 48.24907 | -4.86813 | 38989 ft | 445 kts | 204° |
| 2026-05-06 16:14 | 48.19154 | -4.90257 | 38988 ft | 445 kts | 204° |
| 2026-05-06 16:15 | 48.13400 | -4.93692 | 38986 ft | 445 kts | 204° |
| 2026-05-06 16:15 | 48.07650 | -4.97119 | 38987 ft | 445 kts | 204° |
| 2026-05-06 16:16 | 48.01894 | -5.00543 | 38987 ft | 445 kts | 203° |
| 2026-05-06 16:16 | 47.96133 | -5.03958 | 38990 ft | 445 kts | 203° |
| 2026-05-06 16:17 | 47.90379 | -5.07362 | 38988 ft | 445 kts | 203° |
| 2026-05-06 16:17 | 47.84625 | -5.10760 | 38997 ft | 445 kts | 203° |
| 2026-05-06 16:18 | 47.79843 | -5.13578 | 38988 ft | 444 kts | 203° |
| 2026-05-06 16:18 | 47.74092 | -5.16956 | 38991 ft | 444 kts | 203° |
| 2026-05-06 16:19 | 47.68345 | -5.20322 | 38988 ft | 444 kts | 203° |
| 2026-05-06 16:19 | 47.62588 | -5.23683 | 38999 ft | 445 kts | 203° |
| 2026-05-06 16:20 | 47.56825 | -5.27047 | 39002 ft | 445 kts | 203° |
| 2026-05-06 16:20 | 47.51100 | -5.30380 | 39003 ft | 445 kts | 203° |
| 2026-05-06 16:21 | 47.45341 | -5.33725 | 38998 ft | 445 kts | 203° |
| 2026-05-06 16:21 | 47.39576 | -5.37069 | 39002 ft | 445 kts | 203° |
| 2026-05-06 16:22 | 47.33811 | -5.40399 | 39007 ft | 445 kts | 203° |
| 2026-05-06 16:22 | 47.28049 | -5.43716 | 39004 ft | 445 kts | 203° |
| 2026-05-06 16:23 | 47.22281 | -5.47033 | 39011 ft | 445 kts | 203° |
| 2026-05-06 16:23 | 47.16521 | -5.50339 | 39012 ft | 445 kts | 203° |
| 2026-05-06 16:24 | 47.10757 | -5.53640 | 39011 ft | 445 kts | 203° |
| 2026-05-06 16:24 | 47.04989 | -5.56933 | 39011 ft | 445 kts | 203° |
| 2026-05-06 16:25 | 46.99221 | -5.60219 | 39012 ft | 445 kts | 203° |
| 2026-05-06 16:25 | 46.93456 | -5.63497 | 39015 ft | 445 kts | 203° |
| 2026-05-06 16:26 | 46.87686 | -5.66771 | 39015 ft | 445 kts | 203° |
| 2026-05-06 16:26 | 46.81911 | -5.70031 | 39009 ft | 445 kts | 203° |
| 2026-05-06 16:27 | 46.76150 | -5.73288 | 39017 ft | 444 kts | 203° |
| 2026-05-06 16:27 | 46.70392 | -5.76529 | 39018 ft | 444 kts | 203° |
| 2026-05-06 16:28 | 46.64626 | -5.79772 | 39015 ft | 444 kts | 203° |
| 2026-05-06 16:28 | 46.58884 | -5.83111 | 39020 ft | 444 kts | 205° |
| 2026-05-06 16:29 | 46.53236 | -5.86741 | 39020 ft | 444 kts | 206° |
| 2026-05-06 16:29 | 46.47629 | -5.90342 | 39021 ft | 444 kts | 205° |
| 2026-05-06 16:30 | 46.42899 | -5.93363 | 39021 ft | 444 kts | 206° |
| 2026-05-06 16:30 | 46.36329 | -5.97550 | 39020 ft | 444 kts | 206° |
| 2026-05-06 16:31 | 46.30645 | -6.01176 | 39018 ft | 444 kts | 205° |
| 2026-05-06 16:31 | 46.25032 | -6.04739 | 39021 ft | 444 kts | 205° |
| 2026-05-06 16:32 | 46.19375 | -6.08318 | 39022 ft | 444 kts | 205° |
| 2026-05-06 16:32 | 46.13724 | -6.11890 | 39022 ft | 444 kts | 205° |
| 2026-05-06 16:33 | 46.08066 | -6.15455 | 39027 ft | 444 kts | 205° |
| 2026-05-06 16:34 | 45.99586 | -6.20781 | 39019 ft | 443 kts | 205° |
| 2026-05-06 16:34 | 45.93931 | -6.24329 | 39027 ft | 443 kts | 205° |
| 2026-05-06 16:35 | 45.88274 | -6.27864 | 39027 ft | 443 kts | 205° |
| 2026-05-06 16:35 | 45.82619 | -6.31380 | 39027 ft | 443 kts | 205° |
| 2026-05-06 16:36 | 45.76960 | -6.34895 | 39025 ft | 443 kts | 205° |
| 2026-05-06 16:36 | 45.71299 | -6.38407 | 39025 ft | 443 kts | 205° |
| 2026-05-06 16:37 | 45.65647 | -6.41914 | 39025 ft | 443 kts | 205° |
| 2026-05-06 16:37 | 45.59990 | -6.45414 | 39028 ft | 443 kts | 205° |
| 2026-05-06 16:38 | 45.54336 | -6.48902 | 39023 ft | 443 kts | 205° |
| 2026-05-06 16:38 | 45.48677 | -6.52385 | 39027 ft | 443 kts | 205° |
| 2026-05-06 16:39 | 45.43022 | -6.55852 | 39028 ft | 443 kts | 205° |
| 2026-05-06 16:39 | 45.37364 | -6.59321 | 39024 ft | 443 kts | 205° |
| 2026-05-06 16:40 | 45.31710 | -6.62784 | 39030 ft | 442 kts | 205° |
| 2026-05-06 16:40 | 45.26050 | -6.66240 | 39027 ft | 443 kts | 205° |
| 2026-05-06 16:41 | 45.20390 | -6.69684 | 39027 ft | 443 kts | 205° |
| 2026-05-06 16:41 | 45.14722 | -6.73121 | 39019 ft | 443 kts | 205° |
| 2026-05-06 16:42 | 45.09060 | -6.76552 | 39026 ft | 443 kts | 205° |
| 2026-05-06 16:42 | 45.03393 | -6.79984 | 39025 ft | 443 kts | 205° |
| 2026-05-06 16:43 | 44.97761 | -6.83385 | 39023 ft | 443 kts | 205° |
| 2026-05-06 16:43 | 44.92095 | -6.86804 | 39029 ft | 443 kts | 205° |
| 2026-05-06 16:44 | 44.86429 | -6.90221 | 39022 ft | 443 kts | 205° |
| 2026-05-06 16:44 | 44.80968 | -6.94177 | 39023 ft | 441 kts | 214° |
| 2026-05-06 16:45 | 44.75795 | -6.98801 | 39012 ft | 441 kts | 214° |
| 2026-05-06 16:45 | 44.70614 | -7.03412 | 39020 ft | 441 kts | 214° |
| 2026-05-06 16:46 | 44.65425 | -7.07998 | 39032 ft | 441 kts | 214° |
| 2026-05-06 16:46 | 44.60230 | -7.12583 | 39014 ft | 441 kts | 214° |
| 2026-05-06 16:47 | 44.55033 | -7.17152 | 39031 ft | 441 kts | 214° |
| 2026-05-06 16:47 | 44.49835 | -7.21716 | 39017 ft | 441 kts | 214° |
| 2026-05-06 16:48 | 44.44636 | -7.26272 | 39020 ft | 441 kts | 214° |
| 2026-05-06 16:48 | 44.39432 | -7.30818 | 39031 ft | 441 kts | 214° |
| 2026-05-06 16:49 | 44.34223 | -7.35355 | 39022 ft | 441 kts | 214° |
| 2026-05-06 16:49 | 44.29015 | -7.39886 | 39021 ft | 441 kts | 213° |
| 2026-05-06 16:50 | 44.23809 | -7.44404 | 39021 ft | 441 kts | 213° |
| 2026-05-06 16:50 | 44.18596 | -7.48929 | 39021 ft | 441 kts | 213° |
| 2026-05-06 16:51 | 44.13384 | -7.53438 | 39019 ft | 441 kts | 213° |
| 2026-05-06 16:51 | 44.08170 | -7.57940 | 39021 ft | 441 kts | 213° |
| 2026-05-06 16:52 | 44.02955 | -7.62440 | 39020 ft | 441 kts | 213° |
| 2026-05-06 16:52 | 43.97732 | -7.66930 | 39021 ft | 441 kts | 213° |
| 2026-05-06 16:53 | 43.92504 | -7.71415 | 39021 ft | 442 kts | 213° |
| 2026-05-06 16:53 | 43.87276 | -7.75890 | 39018 ft | 442 kts | 213° |
| 2026-05-06 16:54 | 43.82039 | -7.80360 | 39018 ft | 442 kts | 213° |
| 2026-05-06 16:54 | 43.76803 | -7.84824 | 39018 ft | 442 kts | 213° |
| 2026-05-06 16:55 | 43.71595 | -7.89252 | 39016 ft | 442 kts | 213° |
| 2026-05-06 16:55 | 43.66357 | -7.93693 | 39018 ft | 442 kts | 213° |
| 2026-05-06 16:56 | 43.61119 | -7.98134 | 39014 ft | 442 kts | 213° |
| 2026-05-06 16:56 | 43.55874 | -8.02560 | 39014 ft | 442 kts | 213° |
| 2026-05-06 16:57 | 43.50653 | -8.06962 | 39012 ft | 442 kts | 213° |
| 2026-05-06 16:57 | 43.45395 | -8.11390 | 39015 ft | 443 kts | 213° |
| 2026-05-06 16:58 | 43.40151 | -8.15799 | 39022 ft | 442 kts | 213° |
| 2026-05-06 16:58 | 43.34899 | -8.20205 | 39021 ft | 442 kts | 213° |
| 2026-05-06 16:59 | 43.29647 | -8.24587 | 39019 ft | 442 kts | 213° |
| 2026-05-06 16:59 | 43.24396 | -8.28967 | 39025 ft | 441 kts | 213° |
| 2026-05-06 17:00 | 43.19148 | -8.33340 | 39020 ft | 441 kts | 213° |
| 2026-05-06 17:00 | 43.13896 | -8.37706 | 39021 ft | 441 kts | 213° |
| 2026-05-06 17:01 | 43.08642 | -8.42067 | 39002 ft | 442 kts | 213° |
| 2026-05-06 17:01 | 43.03385 | -8.46423 | 39005 ft | 442 kts | 213° |
| 2026-05-06 17:02 | 42.98121 | -8.50769 | 39010 ft | 442 kts | 213° |
| 2026-05-06 17:02 | 42.92854 | -8.55109 | 39010 ft | 442 kts | 213° |
| 2026-05-06 17:03 | 42.87583 | -8.59450 | 39007 ft | 443 kts | 213° |
| 2026-05-06 17:03 | 42.82311 | -8.63781 | 39001 ft | 443 kts | 213° |
| 2026-05-06 17:04 | 42.77926 | -8.67380 | 38996 ft | 443 kts | 213° |
| 2026-05-06 17:04 | 42.72650 | -8.71707 | 38994 ft | 443 kts | 213° |
| 2026-05-06 17:05 | 42.67367 | -8.76021 | 38986 ft | 442 kts | 213° |
| 2026-05-06 17:05 | 42.62092 | -8.80317 | 38986 ft | 442 kts | 213° |
| 2026-05-06 17:06 | 42.56816 | -8.84609 | 38988 ft | 443 kts | 213° |
| 2026-05-06 17:06 | 42.51526 | -8.88901 | 38986 ft | 443 kts | 213° |
| 2026-05-06 17:07 | 42.46233 | -8.93188 | 38984 ft | 443 kts | 213° |
| 2026-05-06 17:07 | 42.40937 | -8.97480 | 38987 ft | 443 kts | 213° |
| 2026-05-06 17:08 | 42.35642 | -9.01753 | 38989 ft | 443 kts | 212° |
| 2026-05-06 17:08 | 42.30348 | -9.06021 | 38984 ft | 443 kts | 213° |
| 2026-05-06 17:09 | 42.25053 | -9.10280 | 38975 ft | 443 kts | 213° |
| 2026-05-06 17:09 | 42.19760 | -9.14525 | 38985 ft | 442 kts | 213° |
| 2026-05-06 17:10 | 42.14468 | -9.18761 | 38990 ft | 442 kts | 213° |
| 2026-05-06 17:10 | 42.09184 | -9.22981 | 38986 ft | 443 kts | 213° |
| 2026-05-06 17:11 | 42.03895 | -9.27202 | 38989 ft | 442 kts | 213° |
| 2026-05-06 17:11 | 41.98600 | -9.31411 | 38987 ft | 441 kts | 213° |
| 2026-05-06 17:12 | 41.93305 | -9.35622 | 38987 ft | 442 kts | 213° |
| 2026-05-06 17:12 | 41.88029 | -9.39855 | 38988 ft | 442 kts | 213° |
| 2026-05-06 17:13 | 41.82796 | -9.44078 | 38993 ft | 442 kts | 213° |
| 2026-05-06 17:13 | 41.77491 | -9.48344 | 38983 ft | 443 kts | 213° |
| 2026-05-06 17:14 | 41.72228 | -9.52565 | 38991 ft | 444 kts | 213° |
| 2026-05-06 17:14 | 41.66927 | -9.56808 | 38991 ft | 444 kts | 213° |
| 2026-05-06 17:15 | 41.61627 | -9.61044 | 38992 ft | 444 kts | 213° |
| 2026-05-06 17:15 | 41.56286 | -9.65303 | 38984 ft | 443 kts | 213° |
| 2026-05-06 17:16 | 41.51026 | -9.69488 | 38998 ft | 443 kts | 213° |
| 2026-05-06 17:16 | 41.45734 | -9.73693 | 38996 ft | 443 kts | 213° |
| 2026-05-06 17:17 | 41.40444 | -9.77889 | 38999 ft | 443 kts | 213° |
| 2026-05-06 17:17 | 41.35149 | -9.82075 | 38980 ft | 443 kts | 213° |
| 2026-05-06 17:18 | 41.29837 | -9.86271 | 38992 ft | 444 kts | 213° |
| 2026-05-06 17:18 | 41.24516 | -9.90468 | 38995 ft | 446 kts | 213° |
| 2026-05-06 17:19 | 41.19178 | -9.94664 | 38998 ft | 445 kts | 213° |
| 2026-05-06 17:19 | 41.13849 | -9.98850 | 38996 ft | 445 kts | 213° |
| 2026-05-06 17:20 | 41.08523 | -10.03024 | 38995 ft | 444 kts | 213° |
| 2026-05-06 17:20 | 41.03205 | -10.07187 | 38998 ft | 444 kts | 213° |
| 2026-05-06 17:21 | 40.97884 | -10.11336 | 38999 ft | 443 kts | 213° |
| 2026-05-06 17:21 | 40.92565 | -10.15475 | 39003 ft | 444 kts | 213° |
| 2026-05-06 17:22 | 40.87246 | -10.19614 | 38997 ft | 444 kts | 213° |
| 2026-05-06 17:22 | 40.81914 | -10.23751 | 38999 ft | 446 kts | 213° |
| 2026-05-06 17:23 | 40.76557 | -10.27904 | 39006 ft | 447 kts | 213° |
| 2026-05-06 17:23 | 40.71193 | -10.32052 | 39007 ft | 447 kts | 213° |
| 2026-05-06 17:24 | 40.65832 | -10.36190 | 38995 ft | 446 kts | 213° |
| 2026-05-06 17:24 | 40.60478 | -10.40311 | 39000 ft | 445 kts | 213° |
| 2026-05-06 17:25 | 40.55172 | -10.44385 | 39003 ft | 445 kts | 213° |
| 2026-05-06 17:25 | 40.49830 | -10.48491 | 39011 ft | 446 kts | 213° |
| 2026-05-06 17:26 | 40.44470 | -10.52597 | 39011 ft | 446 kts | 213° |
| 2026-05-06 17:26 | 40.39114 | -10.56687 | 39005 ft | 445 kts | 213° |
| 2026-05-06 17:27 | 40.33762 | -10.60772 | 39012 ft | 446 kts | 213° |
| 2026-05-06 17:27 | 40.28381 | -10.64868 | 39008 ft | 447 kts | 213° |
| 2026-05-06 17:28 | 40.23002 | -10.68955 | 39014 ft | 447 kts | 213° |
| 2026-05-06 17:28 | 40.17657 | -10.73013 | 39018 ft | 447 kts | 213° |
| 2026-05-06 17:29 | 40.12237 | -10.77111 | 39015 ft | 447 kts | 213° |
| 2026-05-06 17:29 | 40.06861 | -10.81175 | 39016 ft | 447 kts | 213° |
| 2026-05-06 17:30 | 40.01512 | -10.85219 | 39017 ft | 447 kts | 213° |
| 2026-05-06 17:30 | 39.96123 | -10.89277 | 39011 ft | 447 kts | 213° |
| 2026-05-06 17:31 | 39.90750 | -10.93313 | 39017 ft | 445 kts | 213° |
| 2026-05-06 17:31 | 39.85378 | -10.97345 | 39022 ft | 448 kts | 213° |
| 2026-05-06 17:32 | 39.79971 | -11.01394 | 39021 ft | 449 kts | 213° |
| 2026-05-06 17:32 | 39.74552 | -11.05431 | 39024 ft | 449 kts | 213° |
| 2026-05-06 17:33 | 39.69139 | -11.09469 | 39020 ft | 447 kts | 214° |
| 2026-05-06 17:33 | 39.63754 | -11.13486 | 39024 ft | 446 kts | 214° |
| 2026-05-06 17:34 | 39.58357 | -11.17497 | 39025 ft | 447 kts | 213° |
| 2026-05-06 17:34 | 39.52961 | -11.21499 | 39026 ft | 447 kts | 213° |
| 2026-05-06 17:35 | 39.47561 | -11.25502 | 39012 ft | 447 kts | 213° |
| 2026-05-06 17:35 | 39.42165 | -11.29486 | 39016 ft | 447 kts | 213° |
| 2026-05-06 17:36 | 39.34050 | -11.35473 | 39031 ft | 450 kts | 214° |
| 2026-05-06 17:36 | 39.28603 | -11.39494 | 39036 ft | 451 kts | 214° |
| 2026-05-06 17:37 | 39.23194 | -11.43471 | 39012 ft | 451 kts | 214° |
| 2026-05-06 17:37 | 39.17745 | -11.47462 | 39029 ft | 450 kts | 214° |
| 2026-05-06 17:38 | 39.12297 | -11.51449 | 39028 ft | 450 kts | 214° |
| 2026-05-06 17:38 | 39.06854 | -11.55429 | 39031 ft | 450 kts | 214° |
| 2026-05-06 17:39 | 39.01403 | -11.59406 | 39031 ft | 450 kts | 214° |
| 2026-05-06 17:39 | 38.95953 | -11.63377 | 39032 ft | 450 kts | 214° |
| 2026-05-06 17:40 | 38.90491 | -11.67345 | 39031 ft | 451 kts | 213° |
| 2026-05-06 17:40 | 38.85026 | -11.71313 | 39034 ft | 452 kts | 213° |
| 2026-05-06 17:41 | 38.79549 | -11.75278 | 39039 ft | 452 kts | 213° |
| 2026-05-06 17:41 | 38.74079 | -11.79234 | 39027 ft | 451 kts | 213° |
| 2026-05-06 17:42 | 38.68608 | -11.83188 | 39038 ft | 451 kts | 213° |
| 2026-05-06 17:42 | 38.63141 | -11.87127 | 39038 ft | 451 kts | 213° |
| 2026-05-06 17:43 | 38.57672 | -11.91069 | 39040 ft | 451 kts | 213° |
| 2026-05-06 17:43 | 38.52200 | -11.95007 | 39040 ft | 451 kts | 213° |
| 2026-05-06 17:44 | 38.46764 | -11.98907 | 39035 ft | 451 kts | 213° |
| 2026-05-06 17:44 | 38.41252 | -12.02851 | 39037 ft | 451 kts | 213° |
| 2026-05-06 17:45 | 38.35790 | -12.06754 | 39040 ft | 455 kts | 214° |
| 2026-05-06 17:45 | 38.30220 | -12.10726 | 39046 ft | 457 kts | 214° |
| 2026-05-06 17:46 | 38.24669 | -12.14674 | 39033 ft | 457 kts | 214° |
| 2026-05-06 17:46 | 38.19161 | -12.18591 | 39041 ft | 457 kts | 214° |
| 2026-05-06 17:47 | 38.13608 | -12.22530 | 39042 ft | 457 kts | 214° |
| 2026-05-06 17:47 | 38.08056 | -12.26461 | 39044 ft | 457 kts | 214° |
| 2026-05-06 17:48 | 38.02490 | -12.30399 | 39044 ft | 458 kts | 214° |
| 2026-05-06 17:48 | 37.96923 | -12.34321 | 39046 ft | 458 kts | 214° |
| 2026-05-06 17:49 | 37.91355 | -12.38243 | 39053 ft | 458 kts | 214° |
| 2026-05-06 17:49 | 37.85782 | -12.42160 | 39047 ft | 459 kts | 214° |
| 2026-05-06 17:50 | 37.81134 | -12.45425 | 39052 ft | 461 kts | 214° |
| 2026-05-06 17:50 | 37.75527 | -12.49355 | 39055 ft | 461 kts | 214° |
| 2026-05-06 17:51 | 37.69911 | -12.53286 | 39053 ft | 461 kts | 214° |
| 2026-05-06 17:51 | 37.64294 | -12.57216 | 39054 ft | 461 kts | 214° |
| 2026-05-06 17:52 | 37.58675 | -12.61134 | 39051 ft | 461 kts | 214° |
| 2026-05-06 17:52 | 37.53059 | -12.65042 | 39053 ft | 461 kts | 214° |
| 2026-05-06 17:53 | 37.47438 | -12.68952 | 39045 ft | 461 kts | 214° |
| 2026-05-06 17:53 | 37.41818 | -12.72847 | 39051 ft | 461 kts | 214° |
| 2026-05-06 17:54 | 37.36191 | -12.76740 | 39053 ft | 461 kts | 214° |
| 2026-05-06 17:54 | 37.30565 | -12.80629 | 39055 ft | 463 kts | 215° |
| 2026-05-06 17:55 | 37.24921 | -12.84524 | 39041 ft | 463 kts | 215° |
| 2026-05-06 17:55 | 37.19267 | -12.88421 | 39047 ft | 464 kts | 215° |
| 2026-05-06 17:56 | 37.13609 | -12.92312 | 39054 ft | 464 kts | 215° |
| 2026-05-06 17:56 | 37.07953 | -12.96197 | 39051 ft | 464 kts | 215° |
| 2026-05-06 17:57 | 37.02287 | -13.00075 | 39051 ft | 464 kts | 215° |
| 2026-05-06 17:57 | 36.96620 | -13.03941 | 39036 ft | 464 kts | 215° |
| 2026-05-06 17:58 | 36.90938 | -13.07818 | 39055 ft | 465 kts | 215° |
| 2026-05-06 17:58 | 36.85299 | -13.11670 | 39064 ft | 465 kts | 215° |
| 2026-05-06 17:59 | 36.79620 | -13.15541 | 39053 ft | 466 kts | 216° |
| 2026-05-06 17:59 | 36.73913 | -13.19425 | 39061 ft | 467 kts | 216° |
| 2026-05-06 18:00 | 36.68196 | -13.23298 | 39056 ft | 469 kts | 216° |
| 2026-05-06 18:00 | 36.62459 | -13.27177 | 39064 ft | 469 kts | 216° |
| 2026-05-06 18:01 | 36.56722 | -13.31051 | 39061 ft | 469 kts | 216° |
| 2026-05-06 18:01 | 36.51040 | -13.35015 | 39059 ft | 467 kts | 217° |
| 2026-05-06 18:02 | 36.45412 | -13.39050 | 39056 ft | 467 kts | 217° |
| 2026-05-06 18:02 | 36.39772 | -13.43087 | 39058 ft | 468 kts | 217° |
| 2026-05-06 18:03 | 36.34127 | -13.47118 | 39056 ft | 468 kts | 217° |
| 2026-05-06 18:03 | 36.28476 | -13.51138 | 39046 ft | 468 kts | 218° |
| 2026-05-06 18:04 | 36.22826 | -13.55157 | 39062 ft | 469 kts | 218° |
| 2026-05-06 18:04 | 36.17174 | -13.59179 | 39062 ft | 469 kts | 217° |
| 2026-05-06 18:05 | 36.11511 | -13.63192 | 39056 ft | 469 kts | 217° |
| 2026-05-06 18:05 | 36.05851 | -13.67192 | 39060 ft | 469 kts | 217° |
| 2026-05-06 18:06 | 36.00186 | -13.71177 | 39063 ft | 469 kts | 217° |
| 2026-05-06 18:06 | 35.94516 | -13.75173 | 39038 ft | 469 kts | 217° |
| 2026-05-06 18:07 | 35.88875 | -13.79135 | 39059 ft | 470 kts | 217° |
| 2026-05-06 18:07 | 35.83186 | -13.83127 | 39064 ft | 470 kts | 217° |
| 2026-05-06 18:08 | 35.77496 | -13.87115 | 39060 ft | 470 kts | 218° |
| 2026-05-06 18:08 | 35.71831 | -13.91082 | 39065 ft | 468 kts | 218° |
| 2026-05-06 18:09 | 35.66170 | -13.95042 | 39056 ft | 469 kts | 217° |
| 2026-05-06 18:09 | 35.60484 | -13.99007 | 39065 ft | 470 kts | 217° |
| 2026-05-06 18:10 | 35.54796 | -14.02969 | 39067 ft | 470 kts | 217° |
| 2026-05-06 18:10 | 35.49110 | -14.06941 | 39068 ft | 470 kts | 217° |
| 2026-05-06 18:11 | 35.43424 | -14.10896 | 39070 ft | 469 kts | 217° |
| 2026-05-06 18:11 | 35.37743 | -14.14830 | 39065 ft | 469 kts | 217° |
| 2026-05-06 18:12 | 35.32047 | -14.18774 | 39066 ft | 470 kts | 217° |
| 2026-05-06 18:12 | 35.26357 | -14.22703 | 39060 ft | 469 kts | 217° |
| 2026-05-06 18:13 | 35.20689 | -14.26611 | 39072 ft | 466 kts | 217° |
| 2026-05-06 18:13 | 35.15038 | -14.30502 | 39075 ft | 467 kts | 217° |
| 2026-05-06 18:14 | 35.09373 | -14.34397 | 39073 ft | 467 kts | 217° |
| 2026-05-06 18:14 | 35.03711 | -14.38283 | 39074 ft | 467 kts | 217° |
| 2026-05-06 18:15 | 34.98043 | -14.42157 | 39073 ft | 467 kts | 217° |
| 2026-05-06 18:15 | 34.92376 | -14.46034 | 39076 ft | 467 kts | 217° |
| 2026-05-06 18:16 | 34.86704 | -14.49906 | 39057 ft | 467 kts | 217° |
| 2026-05-06 18:16 | 34.81037 | -14.53771 | 39077 ft | 468 kts | 217° |
| 2026-05-06 18:17 | 34.75359 | -14.57637 | 39062 ft | 468 kts | 217° |
| 2026-05-06 18:17 | 34.69704 | -14.61482 | 39072 ft | 463 kts | 218° |
| 2026-05-06 18:18 | 34.64075 | -14.65302 | 39081 ft | 464 kts | 218° |
| 2026-05-06 18:18 | 34.58433 | -14.69126 | 39072 ft | 465 kts | 217° |
| 2026-05-06 18:19 | 34.52768 | -14.72958 | 39076 ft | 467 kts | 217° |
| 2026-05-06 18:19 | 34.47096 | -14.76789 | 39076 ft | 467 kts | 217° |
| 2026-05-06 18:20 | 34.41464 | -14.80598 | 39082 ft | 467 kts | 217° |
| 2026-05-06 18:20 | 34.35783 | -14.84420 | 39082 ft | 467 kts | 217° |
| 2026-05-06 18:21 | 34.30111 | -14.88239 | 39073 ft | 467 kts | 217° |
| 2026-05-06 18:21 | 34.24396 | -14.92032 | 39082 ft | 471 kts | 215° |
| 2026-05-06 18:22 | 34.18487 | -14.95572 | 39071 ft | 471 kts | 214° |
| 2026-05-06 18:22 | 34.12615 | -14.99052 | 39080 ft | 469 kts | 214° |
| 2026-05-06 18:23 | 34.06807 | -15.02506 | 39081 ft | 469 kts | 214° |
| 2026-05-06 18:23 | 34.00947 | -15.05996 | 39076 ft | 470 kts | 214° |
| 2026-05-06 18:24 | 33.95076 | -15.09484 | 39082 ft | 471 kts | 214° |
| 2026-05-06 18:24 | 33.89202 | -15.12966 | 39079 ft | 471 kts | 214° |
| 2026-05-06 18:25 | 33.83329 | -15.16445 | 39082 ft | 470 kts | 214° |
| 2026-05-06 18:25 | 33.77460 | -15.19919 | 39070 ft | 470 kts | 214° |
| 2026-05-06 18:26 | 33.71563 | -15.23401 | 39081 ft | 473 kts | 214° |
| 2026-05-06 18:26 | 33.65660 | -15.26880 | 39083 ft | 473 kts | 214° |
| 2026-05-06 18:27 | 33.59750 | -15.30358 | 39076 ft | 473 kts | 214° |
| 2026-05-06 18:27 | 33.53850 | -15.33826 | 39074 ft | 472 kts | 214° |
| 2026-05-06 18:28 | 33.47944 | -15.37293 | 39070 ft | 473 kts | 213° |
| 2026-05-06 18:28 | 33.42026 | -15.40763 | 39080 ft | 474 kts | 213° |